createdAt,value
2022-08-24T00:00:15.548Z,22.86
2022-08-24T00:02:18.307Z,22.89
2022-08-24T00:04:20.701Z,22.90
2022-08-24T00:06:23.799Z,22.96
2022-08-24T00:08:27.249Z,22.87
2022-08-24T00:10:29.671Z,22.87
2022-08-24T00:12:32.738Z,22.95
2022-08-24T00:14:35.853Z,22.84
2022-08-24T00:16:45.825Z,22.86
2022-08-24T00:18:48.837Z,22.90
2022-08-24T00:20:51.936Z,22.82
2022-08-24T00:22:54.084Z,22.82
2022-08-24T00:24:57.155Z,22.85
2022-08-24T00:27:00.139Z,22.88
2022-08-24T00:29:07.291Z,22.84
2022-08-24T00:31:10.667Z,22.79
2022-08-24T00:33:12.846Z,22.82
2022-08-24T00:35:18.614Z,22.83
2022-08-24T00:37:20.764Z,22.85
2022-08-24T00:39:23.049Z,22.83
2022-08-24T00:41:25.467Z,22.79
2022-08-24T00:43:27.753Z,22.82
2022-08-24T00:45:31.443Z,22.81
2022-08-24T00:47:42.963Z,22.72
2022-08-24T00:50:11.027Z,22.82
2022-08-24T00:52:20.326Z,22.80
2022-08-24T00:54:27.210Z,22.82
2022-08-24T00:56:42.733Z,22.81
2022-08-24T00:58:56.901Z,22.80
2022-08-24T01:01:04.542Z,22.85
2022-08-24T01:03:07.572Z,22.86
2022-08-24T01:05:12.579Z,22.82
2022-08-24T01:07:15.846Z,22.88
2022-08-24T01:09:18.030Z,22.84
2022-08-24T01:11:25.176Z,22.73
2022-08-24T01:13:29.703Z,22.81
2022-08-24T01:15:35.627Z,22.85
2022-08-24T01:17:56.890Z,22.79
2022-08-24T01:20:01.254Z,22.77
2022-08-24T01:22:37.777Z,22.81
2022-08-24T01:24:41.013Z,22.81
2022-08-24T01:26:49.805Z,22.77
2022-08-24T01:28:57.791Z,22.74
2022-08-24T01:31:01.490Z,22.82
2022-08-24T01:33:07.389Z,22.80
2022-08-24T01:35:10.082Z,22.82
2022-08-24T01:37:12.657Z,22.74
2022-08-24T01:39:21.014Z,22.76
2022-08-24T01:41:28.283Z,22.75
2022-08-24T01:43:31.526Z,22.74
2022-08-24T01:45:39.419Z,22.82
2022-08-24T01:47:41.605Z,22.69
2022-08-24T01:49:47.815Z,22.72
2022-08-24T01:51:50.145Z,22.62
2022-08-24T01:53:52.326Z,22.71
2022-08-24T01:55:54.764Z,22.69
2022-08-24T01:57:57.532Z,22.69
2022-08-24T02:00:00.494Z,22.71
2022-08-24T02:02:08.287Z,22.73
2022-08-24T02:04:10.813Z,22.66
2022-08-24T02:06:19.840Z,22.69
2022-08-24T02:08:22.220Z,22.67
2022-08-24T02:10:24.977Z,22.72
2022-08-24T02:12:27.417Z,22.74
2022-08-24T02:14:32.884Z,22.69
2022-08-24T02:16:44.594Z,22.70
2022-08-24T02:18:47.216Z,22.71
2022-08-24T02:20:50.547Z,22.60
2022-08-24T02:22:53.883Z,22.62
2022-08-24T02:24:56.120Z,22.65
2022-08-24T02:26:59.359Z,22.68
2022-08-24T02:29:03.608Z,22.69
2022-08-24T02:31:07.643Z,22.71
2022-08-24T02:33:09.871Z,22.71
2022-08-24T02:35:12.531Z,22.56
2022-08-24T02:37:14.838Z,22.68
2022-08-24T02:39:16.947Z,22.66
2022-08-24T02:41:18.969Z,22.65
2022-08-24T02:43:20.949Z,22.64
2022-08-24T02:45:23.031Z,22.65
2022-08-24T02:47:38.257Z,22.68
2022-08-24T02:49:41.497Z,22.63
2022-08-24T02:51:46.152Z,22.67
2022-08-24T02:53:48.642Z,22.65
2022-08-24T02:55:51.022Z,22.68
2022-08-24T02:57:53.007Z,22.60
2022-08-24T02:59:54.875Z,22.61
2022-08-24T03:01:56.681Z,22.55
2022-08-24T03:03:58.659Z,22.59
2022-08-24T03:06:00.475Z,22.57
2022-08-24T03:08:02.780Z,22.55
2022-08-24T03:10:07.159Z,22.59
2022-08-24T03:12:09.085Z,22.54
2022-08-24T03:14:11.322Z,22.48
2022-08-24T03:16:13.321Z,22.55
2022-08-24T03:18:15.223Z,22.56
2022-08-24T03:20:21.992Z,22.55
2022-08-24T03:22:24.453Z,22.58
2022-08-24T03:24:26.229Z,22.55
2022-08-24T03:26:28.355Z,22.47
2022-08-24T03:28:30.406Z,22.56
2022-08-24T03:30:33.264Z,22.51
2022-08-24T03:32:35.472Z,22.59
2022-08-24T03:34:37.977Z,22.61
2022-08-24T03:36:41.382Z,22.62
2022-08-24T03:38:44.043Z,22.64
2022-08-24T03:40:45.920Z,22.64
2022-08-24T03:42:47.825Z,22.59
2022-08-24T03:44:51.696Z,22.63
2022-08-24T03:46:54.191Z,22.64
2022-08-24T03:48:58.277Z,22.62
2022-08-24T03:51:00.388Z,22.63
2022-08-24T03:53:02.471Z,22.62
2022-08-24T03:55:07.052Z,22.62
2022-08-24T03:57:08.860Z,22.64
2022-08-24T03:59:11.107Z,22.60
2022-08-24T04:01:13.851Z,22.57
2022-08-24T04:03:16.082Z,22.59
2022-08-24T04:05:18.037Z,22.55
2022-08-24T04:07:20.353Z,22.60
2022-08-24T04:09:22.232Z,22.61
2022-08-24T04:11:28.355Z,22.60
2022-08-24T04:13:33.683Z,22.60
2022-08-24T04:15:40.395Z,22.52
2022-08-24T04:17:42.383Z,22.54
2022-08-24T04:19:59.825Z,22.55
2022-08-24T04:22:01.892Z,22.49
2022-08-24T04:24:06.072Z,22.47
2022-08-24T04:26:07.843Z,22.40
2022-08-24T04:28:10.727Z,22.44
2022-08-24T04:30:14.619Z,22.41
2022-08-24T04:32:16.583Z,22.48
2022-08-24T04:34:18.838Z,22.43
2022-08-24T04:36:21.865Z,22.36
2022-08-24T04:38:24.021Z,22.41
2022-08-24T04:40:25.965Z,22.44
2022-08-24T04:42:27.936Z,22.31
2022-08-24T04:44:30.146Z,22.35
2022-08-24T04:46:33.570Z,22.25
2022-08-24T04:48:36.243Z,22.31
2022-08-24T04:50:40.134Z,22.32
2022-08-24T04:52:42.272Z,22.30
2022-08-24T04:54:44.085Z,22.21
2022-08-24T04:56:46.108Z,22.30
2022-08-24T04:58:48.177Z,22.37
2022-08-24T05:00:50.249Z,22.29
2022-08-24T05:02:52.165Z,22.33
2022-08-24T05:04:55.405Z,22.21
2022-08-24T05:06:57.494Z,22.24
2022-08-24T05:09:00.684Z,22.19
2022-08-24T05:11:07.557Z,22.22
2022-08-24T05:13:10.239Z,22.23
2022-08-24T05:15:13.211Z,22.16
2022-08-24T05:17:14.988Z,22.20
2022-08-24T05:19:17.286Z,22.25
2022-08-24T05:21:21.754Z,22.28
2022-08-24T05:23:23.722Z,22.24
2022-08-24T05:25:25.676Z,22.13
2022-08-24T05:27:27.562Z,22.24
2022-08-24T05:29:29.993Z,22.26
2022-08-24T05:31:32.913Z,22.23
2022-08-24T05:33:34.935Z,22.25
2022-08-24T05:35:43.635Z,22.18
2022-08-24T05:37:46.342Z,22.19
2022-08-24T05:39:55.545Z,22.25
2022-08-24T05:41:59.928Z,22.22
2022-08-24T05:44:01.736Z,22.28
2022-08-24T05:46:08.434Z,22.24
2022-08-24T05:48:10.298Z,22.26
2022-08-24T05:50:12.652Z,22.18
2022-08-24T05:52:14.427Z,22.25
2022-08-24T05:54:16.256Z,22.24
2022-08-24T05:56:19.712Z,22.16
2022-08-24T05:58:22.966Z,22.19
2022-08-24T06:00:33.557Z,22.27
2022-08-24T06:02:35.355Z,22.28
2022-08-24T06:04:38.266Z,22.30
2022-08-24T06:06:40.296Z,22.25
2022-08-24T06:08:46.102Z,22.29
2022-08-24T06:10:50.914Z,22.31
2022-08-24T06:12:52.645Z,22.35
2022-08-24T06:14:54.716Z,22.38
2022-08-24T06:16:56.567Z,22.33
2022-08-24T06:18:58.294Z,22.33
2022-08-24T06:21:05.020Z,22.30
2022-08-24T06:23:07.258Z,22.34
2022-08-24T06:25:27.729Z,22.29
2022-08-24T06:27:29.621Z,22.31
2022-08-24T06:29:34.348Z,22.31
2022-08-24T06:31:42.253Z,22.34
2022-08-24T06:33:45.355Z,22.38
2022-08-24T06:35:47.778Z,22.41
2022-08-24T06:37:49.446Z,22.44
2022-08-24T06:39:54.953Z,22.50
2022-08-24T06:41:59.440Z,22.58
2022-08-24T06:44:01.147Z,22.62
2022-08-24T06:46:03.712Z,22.67
2022-08-24T06:48:05.510Z,22.54
2022-08-24T06:50:08.651Z,22.59
2022-08-24T06:52:11.965Z,22.61
2022-08-24T06:54:14.052Z,22.62
2022-08-24T06:56:16.833Z,22.60
2022-08-24T06:58:19.279Z,22.52
2022-08-24T07:00:22.061Z,22.58
2022-08-24T07:02:24.622Z,22.65
2022-08-24T07:04:28.342Z,22.64
2022-08-24T07:06:31.844Z,22.67
2022-08-24T07:08:34.419Z,22.61
2022-08-24T07:10:36.184Z,22.55
2022-08-24T07:12:38.132Z,22.64
2022-08-24T07:14:39.811Z,22.63
2022-08-24T07:16:41.537Z,22.73
2022-08-24T07:18:47.320Z,22.71
2022-08-24T07:20:51.878Z,22.76
2022-08-24T07:22:54.602Z,22.75
2022-08-24T07:24:56.308Z,22.76
2022-08-24T07:26:58.031Z,22.77
2022-08-24T07:29:06.384Z,22.73
2022-08-24T07:31:09.901Z,22.71
2022-08-24T07:33:12.228Z,22.77
2022-08-24T07:35:15.559Z,22.79
2022-08-24T07:37:18.450Z,22.85
2022-08-24T07:39:20.144Z,22.87
2022-08-24T07:41:51.403Z,22.87
2022-08-24T07:43:46.806Z,22.82
2022-08-24T07:45:49.771Z,22.90
2022-08-24T07:49:58.965Z,22.94
2022-08-24T07:52:01.196Z,23.03
2022-08-24T07:54:03.441Z,23.08
2022-08-24T07:56:10.129Z,23.12
2022-08-24T07:58:11.888Z,23.14
2022-08-24T08:00:16.478Z,23.10
2022-08-24T08:02:18.485Z,23.11
2022-08-24T08:04:25.197Z,23.13
2022-08-24T08:06:26.989Z,23.20
2022-08-24T08:08:29.619Z,23.21
2022-08-24T08:10:31.466Z,23.23
2022-08-24T08:12:35.074Z,23.28
2022-08-24T08:14:38.503Z,23.28
2022-08-24T08:16:40.645Z,23.32
2022-08-24T08:18:45.518Z,23.36
2022-08-24T08:20:47.562Z,23.32
2022-08-24T08:23:07.762Z,23.33
2022-08-24T08:25:09.833Z,23.42
2022-08-24T08:27:13.074Z,23.43
2022-08-24T08:29:14.835Z,23.47
2022-08-24T08:31:16.606Z,23.53
2022-08-24T08:33:18.644Z,23.35
2022-08-24T08:35:20.991Z,23.39
2022-08-24T08:37:22.981Z,23.51
2022-08-24T08:39:28.034Z,23.55
2022-08-24T08:42:00.705Z,23.55
2022-08-24T08:44:11.943Z,23.66
2022-08-24T08:46:13.709Z,23.68
2022-08-24T08:48:42.493Z,23.68
2022-08-24T08:51:21.430Z,23.68
2022-08-24T08:53:56.852Z,23.85
2022-08-24T08:56:09.693Z,23.89
2022-08-24T08:58:25.659Z,23.99
2022-08-24T09:00:40.837Z,23.95
2022-08-24T09:03:27.205Z,23.96
2022-08-24T09:05:34.435Z,24.03
2022-08-24T09:07:47.697Z,24.08
2022-08-24T09:10:02.540Z,23.97
2022-08-24T09:12:11.800Z,24.00
2022-08-24T09:14:41.478Z,23.94
2022-08-24T09:17:01.874Z,23.99
2022-08-24T09:19:34.696Z,23.98
2022-08-24T09:21:42.395Z,23.99
2022-08-24T09:24:15.853Z,24.01
2022-08-24T09:26:27.270Z,24.08
2022-08-24T09:28:35.044Z,24.17
2022-08-24T09:30:55.394Z,24.25
2022-08-24T09:33:00.611Z,24.29
2022-08-24T09:35:09.900Z,24.32
2022-08-24T09:37:34.848Z,24.31
2022-08-24T09:39:59.047Z,24.31
2022-08-24T09:42:09.790Z,24.36
2022-08-24T09:44:38.810Z,24.36
2022-08-24T09:46:55.806Z,24.50
2022-08-24T09:49:29.855Z,24.56
2022-08-24T09:51:49.745Z,24.73
2022-08-24T09:54:08.859Z,24.79
2022-08-24T09:56:37.796Z,24.82
2022-08-24T09:58:59.114Z,24.74
2022-08-24T10:01:26.274Z,24.77
2022-08-24T10:03:41.074Z,24.85
2022-08-24T10:06:03.816Z,24.98
2022-08-24T10:08:42.313Z,25.02
2022-08-24T10:11:03.197Z,25.14
2022-08-24T10:13:25.306Z,25.20
2022-08-24T10:15:53.494Z,25.26
2022-08-24T10:18:17.833Z,25.25
2022-08-24T10:20:23.952Z,25.34
2022-08-24T10:22:47.143Z,25.28
2022-08-24T10:24:58.628Z,25.40
2022-08-24T10:27:08.898Z,25.46
2022-08-24T10:29:29.198Z,25.53
2022-08-24T10:31:41.117Z,25.60
2022-08-24T10:34:16.678Z,25.71
2022-08-24T10:36:36.302Z,25.91
2022-08-24T10:39:24.918Z,26.04
2022-08-24T10:41:59.984Z,26.25
2022-08-24T10:44:40.848Z,26.47
2022-08-24T10:46:50.310Z,26.49
2022-08-24T10:49:13.845Z,26.57
2022-08-24T10:51:54.069Z,26.64
2022-08-24T10:53:57.088Z,26.75
2022-08-24T10:56:19.718Z,26.93
2022-08-24T10:58:46.242Z,26.99
2022-08-24T11:00:48.702Z,27.08
2022-08-24T11:03:15.631Z,27.22
2022-08-24T11:05:35.544Z,27.34
2022-08-24T11:07:45.718Z,27.35
2022-08-24T11:09:58.711Z,27.42
2022-08-24T11:12:18.369Z,27.48
2022-08-24T11:14:27.651Z,27.57
2022-08-24T11:16:39.937Z,27.53
2022-08-24T11:18:52.750Z,27.46
2022-08-24T11:20:55.750Z,27.52
2022-08-24T11:23:08.010Z,27.66
2022-08-24T11:25:36.097Z,27.52
2022-08-24T11:27:45.958Z,27.54
2022-08-24T11:29:57.278Z,27.49
2022-08-24T11:32:00.359Z,27.36
2022-08-24T11:34:16.457Z,27.47
2022-08-24T11:36:21.517Z,27.52
2022-08-24T11:38:27.539Z,27.59
2022-08-24T11:40:34.032Z,27.82
2022-08-24T11:43:01.210Z,27.84
2022-08-24T11:45:15.286Z,27.83
2022-08-24T11:47:23.538Z,27.80
2022-08-24T11:50:05.659Z,28.05
2022-08-24T11:52:15.803Z,28.00
2022-08-24T11:54:33.791Z,28.08
2022-08-24T11:56:51.029Z,28.09
2022-08-24T11:59:13.819Z,28.07
2022-08-24T12:01:35.990Z,28.15
2022-08-24T12:03:52.458Z,28.15
2022-08-24T12:06:21.051Z,28.33
2022-08-24T12:08:53.337Z,28.59
2022-08-24T12:11:32.996Z,28.72
2022-08-24T12:13:52.973Z,28.81
2022-08-24T12:16:08.273Z,29.10
2022-08-24T12:18:31.101Z,29.16
2022-08-24T12:20:38.927Z,29.22
2022-08-24T12:22:42.651Z,29.20
2022-08-24T12:24:48.678Z,29.01
2022-08-24T12:26:53.771Z,28.89
2022-08-24T12:29:30.779Z,28.97
2022-08-24T12:31:42.466Z,28.90
2022-08-24T12:33:50.179Z,28.97
2022-08-24T12:35:58.263Z,28.99
2022-08-24T12:38:19.639Z,29.08
2022-08-24T12:40:49.323Z,29.03
2022-08-24T12:42:56.245Z,29.13
2022-08-24T12:45:07.153Z,29.17
2022-08-24T12:47:09.430Z,29.29
2022-08-24T12:49:36.518Z,29.26
2022-08-24T12:51:48.599Z,29.32
2022-08-24T12:54:02.434Z,29.40
2022-08-24T12:56:33.109Z,29.45
2022-08-24T12:58:54.688Z,29.57
2022-08-24T13:00:58.554Z,29.52
2022-08-24T13:03:06.215Z,29.59
2022-08-24T13:05:16.852Z,29.68
2022-08-24T13:07:21.491Z,29.76
2022-08-24T13:09:33.331Z,29.76
2022-08-24T13:11:35.701Z,29.85
2022-08-24T13:13:47.948Z,29.98
2022-08-24T13:15:55.593Z,29.87
2022-08-24T13:18:02.989Z,29.93
2022-08-24T13:20:24.887Z,30.14
2022-08-24T13:22:46.950Z,30.06
2022-08-24T13:24:58.830Z,30.10
2022-08-24T13:27:12.583Z,30.11
2022-08-24T13:29:16.491Z,30.27
2022-08-24T13:31:33.517Z,30.17
2022-08-24T13:33:50.590Z,30.27
2022-08-24T13:36:21.635Z,30.34
2022-08-24T13:38:28.933Z,30.48
2022-08-24T13:40:32.210Z,30.43
2022-08-24T13:43:07.913Z,30.67
2022-08-24T13:45:23.466Z,30.71
2022-08-24T13:47:31.382Z,30.87
2022-08-24T13:50:12.449Z,31.10
2022-08-24T13:53:01.830Z,31.00
2022-08-24T13:55:41.728Z,31.28
2022-08-24T13:58:04.218Z,31.27
2022-08-24T14:00:30.187Z,31.28
2022-08-24T14:03:19.957Z,31.28
2022-08-24T14:05:38.571Z,31.48
2022-08-24T14:08:03.844Z,31.67
2022-08-24T14:10:27.346Z,31.59
2022-08-24T14:12:34.750Z,31.68
2022-08-24T14:14:57.413Z,31.56
2022-08-24T14:17:36.830Z,31.57
2022-08-24T14:20:02.843Z,31.48
2022-08-24T14:22:10.551Z,31.52
2022-08-24T14:24:30.737Z,31.70
2022-08-24T14:26:43.897Z,31.82
2022-08-24T14:28:45.856Z,31.91
2022-08-24T14:30:54.254Z,31.91
2022-08-24T14:32:59.340Z,32.04
2022-08-24T14:35:09.997Z,32.20
2022-08-24T14:37:30.617Z,32.06
2022-08-24T14:40:03.339Z,32.16
2022-08-24T14:42:23.188Z,32.41
2022-08-24T14:44:53.045Z,32.41
2022-08-24T14:47:04.578Z,32.44
2022-08-24T14:49:20.570Z,32.46
2022-08-24T14:51:41.169Z,32.38
2022-08-24T14:54:00.237Z,32.08
2022-08-24T14:56:35.928Z,32.13
2022-08-24T14:59:12.818Z,32.24
2022-08-24T15:01:46.847Z,32.19
2022-08-24T15:04:11.138Z,32.15
2022-08-24T15:06:39.356Z,31.94
2022-08-24T15:08:44.297Z,31.64
2022-08-24T15:10:52.796Z,31.71
2022-08-24T15:13:03.941Z,31.58
2022-08-24T15:15:34.505Z,31.26
2022-08-24T15:17:46.654Z,31.20
2022-08-24T15:20:08.500Z,30.98
2022-08-24T15:22:43.872Z,30.70
2022-08-24T15:25:04.707Z,30.86
2022-08-24T15:27:15.425Z,30.81
2022-08-24T15:29:21.505Z,30.74
2022-08-24T15:31:28.164Z,30.98
2022-08-24T15:33:31.381Z,31.22
2022-08-24T15:35:37.598Z,31.48
2022-08-24T15:37:42.075Z,31.66
2022-08-24T15:39:59.589Z,31.86
2022-08-24T15:42:10.243Z,31.87
2022-08-24T15:44:23.330Z,31.90
2022-08-24T15:46:32.059Z,31.85
2022-08-24T15:48:35.032Z,31.97
2022-08-24T15:50:43.439Z,32.01
2022-08-24T15:52:51.360Z,32.13
2022-08-24T15:55:03.500Z,32.02
2022-08-24T15:57:27.905Z,32.03
2022-08-24T15:59:53.159Z,31.82
2022-08-24T16:02:28.664Z,31.88
2022-08-24T16:05:15.608Z,31.67
2022-08-24T16:07:26.413Z,31.58
2022-08-24T16:09:28.064Z,31.52
2022-08-24T16:11:38.520Z,31.31
2022-08-24T16:13:42.703Z,30.96
2022-08-24T16:15:48.886Z,30.76
2022-08-24T16:17:56.309Z,30.68
2022-08-24T16:20:01.441Z,30.56
2022-08-24T16:22:13.032Z,30.54
2022-08-24T16:24:20.544Z,30.36
2022-08-24T16:26:30.532Z,30.28
2022-08-24T16:28:36.422Z,30.22
2022-08-24T16:30:46.763Z,30.14
2022-08-24T16:32:54.012Z,29.99
2022-08-24T16:35:15.648Z,29.75
2022-08-24T16:37:20.328Z,29.72
2022-08-24T16:39:22.475Z,29.75
2022-08-24T16:41:25.013Z,29.75
2022-08-24T16:43:26.911Z,29.75
2022-08-24T16:45:32.804Z,29.78
2022-08-24T16:47:37.713Z,29.79
2022-08-24T16:49:45.015Z,29.70
2022-08-24T16:51:46.686Z,29.65
2022-08-24T16:53:48.356Z,29.67
2022-08-24T16:55:51.097Z,29.68
2022-08-24T16:57:52.859Z,29.64
2022-08-24T16:59:56.527Z,29.65
2022-08-24T17:02:01.546Z,29.57
2022-08-24T17:04:03.423Z,29.52
2022-08-24T17:06:05.699Z,29.52
2022-08-24T17:08:07.581Z,29.45
2022-08-24T17:10:13.537Z,29.35
2022-08-24T17:12:15.450Z,29.31
2022-08-24T17:14:17.590Z,29.26
2022-08-24T17:16:21.694Z,29.23
2022-08-24T17:18:24.919Z,29.07
2022-08-24T17:20:26.582Z,29.13
2022-08-24T17:22:28.422Z,29.15
2022-08-24T17:24:30.238Z,29.17
2022-08-24T17:26:32.463Z,29.18
2022-08-24T17:28:39.233Z,29.22
2022-08-24T17:30:41.990Z,29.21
2022-08-24T17:32:43.751Z,29.17
2022-08-24T17:34:45.432Z,29.19
2022-08-24T17:36:53.385Z,29.17
2022-08-24T17:38:57.205Z,29.20
2022-08-24T17:40:59.103Z,29.07
2022-08-24T17:43:00.838Z,29.02
2022-08-24T17:45:02.791Z,29.09
2022-08-24T17:47:05.436Z,29.00
2022-08-24T17:49:11.809Z,29.00
2022-08-24T17:51:14.759Z,28.99
2022-08-24T17:53:16.532Z,28.95
2022-08-24T17:55:24.041Z,28.92
2022-08-24T17:57:29.108Z,28.85
2022-08-24T17:59:35.241Z,28.81
2022-08-24T18:01:37.091Z,28.80
2022-08-24T18:03:38.803Z,28.70
2022-08-24T18:05:40.851Z,28.68
2022-08-24T18:07:55.877Z,28.74
2022-08-24T18:10:00.365Z,28.71
2022-08-24T18:12:03.944Z,28.73
2022-08-24T18:14:05.735Z,28.74
2022-08-24T18:16:13.731Z,28.69
2022-08-24T18:18:15.762Z,28.60
2022-08-24T18:20:22.984Z,28.63
2022-08-24T18:22:25.218Z,28.63
2022-08-24T18:24:32.278Z,28.64
2022-08-24T18:26:34.375Z,28.65
2022-08-24T18:28:37.138Z,28.62
2022-08-24T18:30:41.881Z,28.58
2022-08-24T18:32:45.939Z,28.53
2022-08-24T18:34:47.623Z,28.54
2022-08-24T18:36:49.365Z,28.46
2022-08-24T18:38:51.417Z,28.45
2022-08-24T18:40:53.680Z,28.46
2022-08-24T18:42:57.514Z,28.51
2022-08-24T18:45:03.119Z,28.43
2022-08-24T18:47:05.203Z,28.43
2022-08-24T18:49:07.403Z,28.42
2022-08-24T18:51:10.912Z,28.35
2022-08-24T18:53:13.804Z,28.37
2022-08-24T18:55:17.214Z,28.35
2022-08-24T18:57:20.445Z,28.30
2022-08-24T18:59:22.543Z,28.32
2022-08-24T19:01:25.961Z,28.19
2022-08-24T19:03:28.174Z,28.21
2022-08-24T19:05:30.524Z,28.17
2022-08-24T19:07:36.368Z,28.13
2022-08-24T19:09:38.325Z,28.11
2022-08-24T19:11:40.532Z,28.11
2022-08-24T19:13:42.618Z,28.07
2022-08-24T19:15:48.933Z,27.99
2022-08-24T19:17:50.887Z,27.98
2022-08-24T19:19:58.054Z,27.90
2022-08-24T19:22:01.101Z,27.89
2022-08-24T19:24:07.077Z,27.85
2022-08-24T19:26:09.636Z,27.80
2022-08-24T19:28:12.599Z,27.81
2022-08-24T19:30:14.498Z,27.81
2022-08-24T19:32:22.401Z,27.72
2022-08-24T19:34:24.808Z,27.74
2022-08-24T19:36:32.683Z,27.73
2022-08-24T19:38:35.202Z,27.68
2022-08-24T19:40:39.067Z,27.72
2022-08-24T19:42:41.381Z,27.62
2022-08-24T19:45:02.800Z,27.60
2022-08-24T19:47:08.753Z,27.60
2022-08-24T19:49:11.100Z,27.56
2022-08-24T19:51:14.359Z,27.52
2022-08-24T19:53:16.432Z,27.45
2022-08-24T19:55:18.505Z,27.42
2022-08-24T19:57:39.086Z,27.36
2022-08-24T19:59:50.717Z,27.36
2022-08-24T20:01:52.824Z,27.37
2022-08-24T20:03:55.173Z,27.35
2022-08-24T20:05:57.405Z,27.35
2022-08-24T20:08:00.562Z,27.31
2022-08-24T20:10:12.489Z,27.29
2022-08-24T20:12:15.222Z,27.23
2022-08-24T20:14:18.249Z,27.24
2022-08-24T20:16:21.860Z,27.17
2022-08-24T20:18:30.858Z,27.17
2022-08-24T20:20:33.050Z,27.19
2022-08-24T20:22:35.268Z,27.17
2022-08-24T20:24:37.369Z,27.13
2022-08-24T20:26:43.499Z,27.09
2022-08-24T20:28:53.239Z,27.01
2022-08-24T20:30:55.318Z,27.03
2022-08-24T20:32:57.820Z,27.04
2022-08-24T20:35:00.142Z,27.03
2022-08-24T20:37:02.180Z,27.02
2022-08-24T20:39:07.459Z,26.99
2022-08-24T20:41:09.462Z,26.94
2022-08-24T20:43:12.661Z,26.98
2022-08-24T20:45:15.220Z,26.90
2022-08-24T20:47:17.984Z,26.84
2022-08-24T20:49:26.707Z,26.82
2022-08-24T20:51:29.072Z,26.73
2022-08-24T20:53:31.071Z,26.72
2022-08-24T20:55:33.161Z,26.63
2022-08-24T20:57:35.549Z,26.63
2022-08-24T20:59:37.674Z,26.55
2022-08-24T21:01:44.208Z,26.58
2022-08-24T21:03:46.945Z,26.55
2022-08-24T21:05:52.602Z,26.54
2022-08-24T21:07:57.366Z,26.50
2022-08-24T21:09:59.536Z,26.45
2022-08-24T21:12:01.620Z,26.44
2022-08-24T21:14:08.275Z,26.41
2022-08-24T21:16:15.310Z,26.40
2022-08-24T21:18:17.471Z,26.38
2022-08-24T21:20:20.310Z,26.36
2022-08-24T21:22:22.154Z,26.34
2022-08-24T21:24:25.907Z,26.27
2022-08-24T21:26:29.838Z,26.26
2022-08-24T21:28:32.631Z,26.26
2022-08-24T21:30:34.882Z,26.23
2022-08-24T21:32:56.027Z,26.24
2022-08-24T21:34:57.760Z,26.23
2022-08-24T21:36:59.873Z,26.21
2022-08-24T21:39:01.794Z,26.20
2022-08-24T21:41:03.552Z,26.13
2022-08-24T21:43:14.721Z,26.14
2022-08-24T21:45:19.838Z,26.06
2022-08-24T21:47:21.577Z,26.08
2022-08-24T21:49:23.789Z,26.08
2022-08-24T21:51:25.521Z,26.07
2022-08-24T21:53:28.677Z,26.06
2022-08-24T21:55:30.736Z,26.05
2022-08-24T21:57:32.438Z,26.01
2022-08-24T21:59:34.728Z,25.98
2022-08-24T22:01:38.725Z,25.96
2022-08-24T22:03:40.545Z,25.94
2022-08-24T22:05:42.208Z,25.94
2022-08-24T22:07:44.816Z,25.93
2022-08-24T22:09:56.179Z,25.93
2022-08-24T22:11:59.552Z,25.90
2022-08-24T22:14:02.509Z,25.88
2022-08-24T22:16:04.809Z,25.80
2022-08-24T22:18:06.626Z,25.81
2022-08-24T22:20:22.312Z,25.78
2022-08-24T22:22:25.727Z,25.77
2022-08-24T22:24:27.781Z,25.75
2022-08-24T22:26:30.403Z,25.81
2022-08-24T22:28:34.553Z,25.74
2022-08-24T22:30:36.284Z,25.70
2022-08-24T22:32:38.199Z,25.72
2022-08-24T22:34:39.997Z,25.66
2022-08-24T22:36:42.712Z,25.65
2022-08-24T22:38:44.666Z,25.64
2022-08-24T22:40:46.909Z,25.57
2022-08-24T22:42:48.581Z,25.57
2022-08-24T22:44:50.390Z,25.57
2022-08-24T22:46:55.647Z,25.59
2022-08-24T22:48:57.425Z,25.56
2022-08-24T22:50:59.085Z,25.56
2022-08-24T22:53:00.836Z,25.58
2022-08-24T22:55:03.266Z,25.60
2022-08-24T22:57:05.083Z,25.58
2022-08-24T22:59:08.849Z,25.56
2022-08-24T23:01:17.549Z,25.56
2022-08-24T23:03:19.378Z,25.54
2022-08-24T23:05:21.150Z,25.50
2022-08-24T23:07:23.041Z,25.50
2022-08-24T23:09:25.349Z,25.52
2022-08-24T23:11:27.704Z,25.50
2022-08-24T23:13:29.407Z,25.48
2022-08-24T23:15:31.177Z,25.46
2022-08-24T23:17:32.963Z,25.45
2022-08-24T23:19:53.361Z,25.41
2022-08-24T23:21:55.251Z,25.44
2022-08-24T23:23:56.950Z,25.41
2022-08-24T23:25:58.636Z,25.36
2022-08-24T23:28:01.128Z,25.34
2022-08-24T23:30:03.735Z,25.32
2022-08-24T23:32:06.856Z,25.31
2022-08-24T23:34:08.641Z,25.29
2022-08-24T23:36:14.019Z,25.29
2022-08-24T23:38:15.872Z,25.26
2022-08-24T23:40:19.133Z,25.26
2022-08-24T23:42:20.974Z,25.24
2022-08-24T23:44:26.132Z,25.20
2022-08-24T23:46:27.926Z,25.19
2022-08-24T23:48:30.337Z,25.17
2022-08-24T23:50:32.526Z,25.16
2022-08-24T23:52:37.818Z,25.12
2022-08-24T23:54:39.503Z,25.10
2022-08-24T23:56:44.954Z,25.05
2022-08-24T23:58:50.030Z,25.05
